x

Destruction Island, Wa (desw1) Weather Station

6:00am - Mon 27th Mar 2017 All times are PDT. -7 hours from GMT.

  • Wind
    17mph, 18mph gusts
  • 空気 Temp 47°f
  • Sea Pressure 1012.7mb
  • Destruction Island, Wa
  • Destruction Island, Wa

More Historic Weather Station data

Upgrade to MSW Pro to gain access to the past 30 days of data for over 8000 Wavebouys and Weather Stations around the globe.

Join Pro

Comparision Forecast

View Surf forecast
   
Mon 03/27 6:00am 17 18 mph 1012.7mb 47f
5:00am 25 28 mph 1011.7mb 48f
4:00am 22 25 mph 1010.9mb 48f
3:00am 20 23 mph 1010.5mb 46f
2:00am 18 21 mph 1009.9mb 47f
1:00am 17 22 mph 1009.8mb 49f
12:00am 23 24 mph 1009.5mb 48f
Sun 03/26 11:00pm 24 25 mph 1008.9mb 48f
10:00pm 13 18 mph 1008.3mb 46f
9:00pm 15 17 mph 1007.8mb 46f
8:00pm 15 17 mph 1007.6mb 46f
7:00pm 22 24 mph 1007mb 46f
6:00pm 24 25 mph 1006.2mb 46f
5:00pm 25 29 mph 1005.4mb 47f
4:00pm 30 34 mph 1004.6mb 47f
3:00pm 37 40 mph 1004.2mb 47f
2:00pm 34 39 mph 1004.3mb 47f
1:00pm 36 38 mph 1004.5mb 46f
12:00pm 36 40 mph 1004.6mb 45f
11:00am 41 45 mph 1004.8mb 44f
10:00am 40 44 mph 1005.3mb 43f
9:00am 34 39 mph 1006.1mb 42f
8:00am 32 36 mph 1007.1mb 43f
7:00am 31 34 mph 1007.9mb 43f
6:00am 29 32 mph 1008.7mb 44f
5:00am 29 31 mph 1009.1mb 45f
4:00am 30 34 mph 1010.7mb 45f
3:00am 29 31 mph 1012mb 45f
2:00am 23 25 mph 1012.9mb 46f
1:00am 25 31 mph 1014mb 45f
12:00am 17 18 mph 1014.8mb 44f
Sat 03/25 11:00pm 17 20 mph 1015.5mb 44f
10:00pm 16 18 mph 1016mb 44f
9:00pm 17 18 mph 1016.6mb 44f
8:00pm 11 15 mph 1017.4mb 45f
7:00pm 10 13 mph 1018.1mb 45f
6:00pm 10 13 mph 1018.7mb 45f
5:00pm 15 18 mph 1019.3mb 46f
4:00pm 6 9 mph 1019.8mb 46f
3:00pm 8 11 mph 1020mb 46f
2:00pm 13 15 mph 1020.1mb 47f
1:00pm 10 11 mph 1020.1mb 46f
12:00pm 16 17 mph 1019.9mb 46f
11:00am 10 13 mph 1020mb 46f
10:00am 11 13 mph 1019.5mb 46f
9:00am 13 14 mph 1018.9mb 45f
8:00am 11
mph
1018.5mb 45f
7:00am 13 14 mph 1018.4mb 45f
6:00am 17 20 mph 1018mb 46f
5:00am 15 16 mph 1017.6mb 46f
4:00am 20 21 mph 1017.4mb 46f
3:00am 18 21 mph 1017mb 46f
2:00am 18 22 mph 1016.6mb 46f
1:00am 15 17 mph 1016.1mb 45f
12:00am 17 18 mph 1015mb 46f
Fri 03/24 11:00pm 22 23 mph 1014.2mb 46f
10:00pm 26 31 mph 1013.5mb 47f
9:00pm 31 32 mph 1012.8mb 47f
8:00pm 25 28 mph 1012mb 48f
7:00pm 23 26 mph 1011.4mb 48f
6:00pm 30 34 mph 1010.8mb 47f
5:00pm 26 29 mph 1010.3mb 47f
4:00pm 26 30 mph 1009.6mb 47f
3:00pm 24 26 mph 1008.8mb 49f
2:00pm 25 29 mph 1008.6mb 48f
1:00pm 26 30 mph 1008.3mb 48f
12:00pm 28 31 mph 1007.7mb 50f
11:00am 23 28 mph 1007.3mb 49f
10:00am 22 24 mph 1007mb 47f
9:00am 23 26 mph 1006.6mb 47f
8:00am 20 22 mph 1006.3mb 47f
7:00am 24 26 mph 1006.4mb 47f
6:00am 22 23 mph 1006.5mb 47f
5:00am 17 20 mph 1006.3mb 47f
4:00am 20 22 mph 1006.7mb 47f
3:00am 28 31 mph 1007mb 47f
2:00am 34 38 mph 1006.7mb 46f
1:00am 32 37 mph 1006.5mb 46f
12:00am 40 44 mph 1006.4mb 46f
Thu 03/23 11:00pm 44 48 mph 1006.6mb 45f
10:00pm 37 41 mph 1007.7mb 44f
9:00pm 39 43 mph 1008mb 45f
8:00pm 38 41 mph 1008.3mb 45f
7:00pm 34 38 mph 1009.3mb 45f
6:00pm 30 32 mph 1010.6mb 45f
5:00pm 32 36 mph 1011.2mb 47f
4:00pm 30 33 mph 1011.6mb 48f
3:00pm 24 25 mph 1012.3mb 47f